Time;durP1;ratioP1;P1;durP2;ratioP2;P2;SDS_P1;SDS_P2;PMS_P1;PMS_P2;Temp;Humidity;BMP_temperature;BMP_pressure;BME280_temperature;BME280_humidity;BME280_pressure;Samples;Min_cycle;Max_cycle;Signal;HPM_P1;HPM_P2
2022/11/20 00:00:40;;;;;;;18.05;9.30;;;0.60;99.90;;;;;;4990156;28;25130;-73
2022/11/20 00:03:06;;;;;;;18.73;8.07;;;0.60;99.90;;;;;;4991277;28;25102;-74
2022/11/20 00:05:32;;;;;;;17.80;9.25;;;0.60;99.90;;;;;;4994221;28;25054;-74
2022/11/20 00:07:58;;;;;;;16.17;7.95;;;0.60;99.90;;;;;;4999019;28;25055;-74
2022/11/20 00:10:24;;;;;;;19.58;7.82;;;0.60;99.90;;;;;;4988581;28;25060;-74
2022/11/20 00:12:49;;;;;;;17.58;8.13;;;0.70;99.90;;;;;;4991103;28;25090;-74
2022/11/20 00:15:15;;;;;;;18.33;9.02;;;0.90;99.90;;;;;;4999181;28;25080;-74
2022/11/20 00:17:40;;;;;;;18.10;8.85;;;0.90;99.90;;;;;;4985218;28;25121;-73
2022/11/20 00:20:06;;;;;;;15.38;8.18;;;0.90;99.90;;;;;;4988067;28;25143;-73
2022/11/20 00:22:32;;;;;;;22.65;9.27;;;0.80;99.90;;;;;;4988561;28;25084;-74
2022/11/20 00:24:57;;;;;;;17.23;8.52;;;0.70;99.90;;;;;;4992377;28;25058;-73
2022/11/20 00:27:23;;;;;;;19.10;9.63;;;0.80;99.90;;;;;;4988658;28;25094;-74
2022/11/20 00:29:49;;;;;;;21.15;9.73;;;0.80;99.90;;;;;;4991152;28;25067;-74
2022/11/20 00:32:14;;;;;;;18.83;8.48;;;0.70;99.90;;;;;;4984894;28;25122;-72
2022/11/20 00:34:40;;;;;;;20.10;9.50;;;0.70;99.90;;;;;;4985850;28;25212;-72
2022/11/20 00:37:06;;;;;;;15.15;8.38;;;0.70;99.90;;;;;;4986174;28;25066;-73
2022/11/20 00:39:31;;;;;;;23.45;9.30;;;0.80;99.90;;;;;;4992397;28;25071;-74
2022/11/20 00:41:57;;;;;;;20.02;8.85;;;0.80;99.90;;;;;;4984264;28;25158;-74
2022/11/20 00:44:22;;;;;;;20.10;8.30;;;0.60;99.90;;;;;;4990129;28;25125;-73
2022/11/20 00:46:48;;;;;;;19.92;9.30;;;0.50;99.90;;;;;;4985516;28;26182;-72
2022/11/20 00:49:14;;;;;;;18.40;8.82;;;0.60;99.90;;;;;;4991947;28;25132;-72
2022/11/20 00:51:39;;;;;;;21.10;10.63;;;0.60;99.90;;;;;;4990659;28;25100;-75
2022/11/20 00:54:05;;;;;;;24.83;9.32;;;0.50;99.90;;;;;;4998630;28;25087;-74
2022/11/20 00:56:30;;;;;;;21.77;9.75;;;0.50;99.90;;;;;;4987073;28;25059;-74
2022/11/20 00:59:00;;;;;;;16.00;8.23;;;0.60;99.90;;;;;;5005654;28;25113;-74
2022/11/20 01:01:28;;;;;;;20.58;9.13;;;0.60;99.90;;;;;;4986641;28;25066;-74
2022/11/20 01:03:56;;;;;;;21.38;10.23;;;0.60;99.90;;;;;;4979315;28;25070;-74
2022/11/20 01:06:28;;;;;;;18.70;8.88;;;0.50;99.90;;;;;;4998311;28;25123;-75
2022/11/20 01:08:56;;;;;;;16.00;8.73;;;0.50;99.90;;;;;;4977819;28;25160;-74
2022/11/20 01:11:25;;;;;;;20.38;10.32;;;0.50;99.90;;;;;;4984173;28;25100;-75
2022/11/20 01:13:52;;;;;;;16.33;7.38;;;0.60;99.90;;;;;;4995124;28;25076;-73
2022/11/20 01:16:20;;;;;;;20.73;10.02;;;0.60;99.90;;;;;;4983211;28;25070;-74
2022/11/20 01:18:48;;;;;;;18.58;8.48;;;0.50;99.90;;;;;;4985136;28;25070;-73
2022/11/20 01:21:31;;;;;;;18.02;9.25;;;0.60;99.90;;;;;;5006937;28;25069;-73
2022/11/20 01:23:57;;;;;;;18.40;9.38;;;0.60;99.90;;;;;;4981198;28;25181;-73
2022/11/20 01:26:25;;;;;;;16.10;8.98;;;0.70;99.90;;;;;;4987914;28;25075;-74
2022/11/20 01:28:51;;;;;;;20.83;9.10;;;0.70;99.90;;;;;;4988466;28;25116;-74
2022/11/20 01:31:31;;;;;;;19.88;9.18;;;0.60;99.90;;;;;;5001372;28;25108;-73
2022/11/20 01:33:59;;;;;;;19.65;8.95;;;0.70;99.90;;;;;;4984094;28;25063;-73
2022/11/20 01:36:27;;;;;;;17.98;8.70;;;0.70;99.90;;;;;;4997796;28;25066;-75
2022/11/20 01:38:54;;;;;;;18.88;8.57;;;0.80;99.90;;;;;;4996866;28;25116;-72
2022/11/20 01:44:06;;;;;;;18.15;8.02;;;0.70;99.90;;;;;;4988796;28;25051;-72
2022/11/20 01:46:35;;;;;;;22.08;9.63;;;0.70;99.90;;;;;;4997234;28;25050;-74
2022/11/20 01:49:26;;;;;;;18.52;9.48;;;0.70;99.90;;;;;;4987684;28;25109;-73
2022/11/20 01:51:58;;;;;;;23.38;9.40;;;0.60;99.90;;;;;;4988482;28;25108;-74
2022/11/20 01:54:38;;;;;;;17.35;8.68;;;0.60;99.90;;;;;;4987175;28;25094;-74
2022/11/20 01:57:06;;;;;;;23.13;9.15;;;0.70;99.90;;;;;;4999194;28;25101;-73
2022/11/20 01:59:32;;;;;;;21.25;9.20;;;0.70;99.90;;;;;;5002234;28;25112;-73
2022/11/20 02:01:58;;;;;;;20.15;9.63;;;0.60;99.90;;;;;;5004263;28;25076;-74
2022/11/20 02:04:24;;;;;;;21.20;9.57;;;0.60;99.90;;;;;;5010033;28;25091;-73
2022/11/20 02:06:59;;;;;;;20.80;9.77;;;0.70;99.90;;;;;;5006066;28;25071;-73
2022/11/20 02:09:24;;;;;;;21.27;9.90;;;0.70;99.90;;;;;;5003916;28;25056;-74
2022/11/20 02:11:50;;;;;;;16.38;9.15;;;0.70;99.90;;;;;;5010705;28;25096;-74
2022/11/20 02:14:16;;;;;;;18.42;9.07;;;0.70;99.90;;;;;;4998463;28;25098;-73
2022/11/20 02:16:46;;;;;;;19.90;8.95;;;0.80;99.90;;;;;;4984138;28;25147;-74
2022/11/20 02:19:31;;;;;;;22.20;10.10;;;0.80;99.90;;;;;;4986791;28;25058;-74
2022/11/20 02:22:08;;;;;;;17.88;8.82;;;0.80;99.90;;;;;;5000115;28;25103;-74
2022/11/20 02:24:34;;;;;;;19.08;9.02;;;0.90;99.90;;;;;;5007287;28;25071;-73
2022/11/20 02:27:09;;;;;;;22.05;9.48;;;1.00;99.90;;;;;;4986861;28;25060;-73
2022/11/20 02:29:40;;;;;;;20.58;9.48;;;0.90;99.90;;;;;;4990930;28;25091;-74
2022/11/20 02:32:06;;;;;;;24.08;9.15;;;0.80;99.90;;;;;;4986354;28;25064;-73
2022/11/20 02:34:32;;;;;;;18.80;9.25;;;0.70;99.90;;;;;;4983235;28;25070;-72
2022/11/20 02:36:59;;;;;;;23.10;10.13;;;0.70;99.90;;;;;;4986001;28;25088;-75
2022/11/20 02:39:27;;;;;;;19.95;8.98;;;0.70;99.90;;;;;;4990607;28;25092;-73
2022/11/20 02:41:53;;;;;;;20.95;9.68;;;0.80;99.90;;;;;;5004765;28;25109;-73
2022/11/20 02:44:20;;;;;;;19.35;9.77;;;0.60;99.90;;;;;;5000628;28;25141;-73
2022/11/20 02:46:46;;;;;;;19.58;9.20;;;0.80;99.90;;;;;;4998509;28;25112;-74
2022/11/20 02:49:11;;;;;;;19.02;8.50;;;0.80;99.90;;;;;;4995090;28;25141;-73
2022/11/20 02:51:37;;;;;;;20.83;9.35;;;0.80;99.90;;;;;;4995532;28;25118;-74
2022/11/20 02:54:03;;;;;;;23.00;9.60;;;0.80;99.90;;;;;;4988690;28;25089;-74
2022/11/20 02:56:29;;;;;;;26.60;9.73;;;0.80;99.90;;;;;;5001903;28;25228;-73
2022/11/20 02:58:55;;;;;;;23.63;10.25;;;0.80;99.90;;;;;;4994672;28;25065;-74
2022/11/20 03:01:21;;;;;;;21.23;9.65;;;0.80;99.90;;;;;;5000686;28;25075;-73
2022/11/20 03:03:48;;;;;;;20.50;9.90;;;0.80;99.90;;;;;;4994784;28;25130;-74
2022/11/20 03:06:15;;;;;;;22.88;9.82;;;0.90;99.90;;;;;;4991792;28;25074;-73
2022/11/20 03:08:41;;;;;;;21.52;9.13;;;0.90;99.90;;;;;;4987254;28;25074;-73
2022/11/20 03:11:07;;;;;;;20.60;9.93;;;0.80;99.90;;;;;;4985463;28;25070;-74
2022/11/20 03:13:33;;;;;;;20.27;10.27;;;0.80;99.90;;;;;;5000330;28;25075;-74
2022/11/20 03:16:05;;;;;;;17.85;9.32;;;0.80;99.90;;;;;;4997600;28;25124;-74
2022/11/20 03:18:31;;;;;;;27.05;11.02;;;0.90;99.90;;;;;;4988407;28;25051;-74
2022/11/20 03:20:58;;;;;;;26.00;10.88;;;0.90;99.90;;;;;;4995923;28;25075;-73
2022/11/20 03:23:24;;;;;;;18.98;9.90;;;0.90;99.90;;;;;;4992617;28;25113;-74
2022/11/20 03:25:50;;;;;;;18.05;9.13;;;1.10;99.90;;;;;;4992590;28;25131;-72
2022/11/20 03:28:15;;;;;;;19.58;9.68;;;1.00;99.90;;;;;;4986174;28;25058;-73
2022/11/20 03:30:41;;;;;;;19.60;9.15;;;1.00;99.90;;;;;;4987044;28;25172;-73
2022/11/20 03:33:06;;;;;;;18.13;9.15;;;1.00;99.90;;;;;;4988630;28;25105;-74
2022/11/20 03:35:32;;;;;;;20.08;10.35;;;1.00;99.90;;;;;;4987085;28;25140;-73
2022/11/20 03:37:58;;;;;;;19.40;9.75;;;0.90;99.90;;;;;;4999080;28;25139;-74
2022/11/20 03:40:23;;;;;;;15.43;8.50;;;0.90;99.90;;;;;;5000501;28;25075;-73
2022/11/20 03:42:49;;;;;;;21.20;9.80;;;0.80;99.90;;;;;;5001265;28;25051;-74
2022/11/20 03:45:16;;;;;;;23.63;9.63;;;0.90;99.90;;;;;;4987460;28;25074;-73
2022/11/20 03:47:43;;;;;;;20.52;9.65;;;1.00;99.90;;;;;;4999517;28;25145;-73
2022/11/20 03:50:12;;;;;;;21.70;9.75;;;0.90;99.90;;;;;;4991387;28;25050;-74
2022/11/20 03:52:38;;;;;;;21.02;10.25;;;0.90;99.90;;;;;;4994583;28;25069;-74
2022/11/20 03:55:04;;;;;;;22.65;8.90;;;0.90;99.90;;;;;;4989823;28;25093;-73
2022/11/20 03:57:30;;;;;;;20.30;9.23;;;0.90;99.90;;;;;;4993044;28;25149;-73
2022/11/20 03:59:55;;;;;;;17.42;8.95;;;0.90;99.90;;;;;;4996935;28;25086;-73
2022/11/20 04:02:21;;;;;;;20.70;9.57;;;0.80;99.90;;;;;;4993108;28;25135;-74
2022/11/20 04:04:46;;;;;;;26.42;10.30;;;0.80;99.90;;;;;;4990668;28;25073;-73
2022/11/20 04:07:12;;;;;;;19.58;9.43;;;0.90;99.90;;;;;;4990968;28;25125;-74
2022/11/20 04:09:38;;;;;;;16.23;8.60;;;0.90;99.90;;;;;;4990777;28;25055;-73
2022/11/20 04:12:04;;;;;;;20.58;9.88;;;1.00;99.90;;;;;;4987118;28;25093;-72
2022/11/20 04:14:29;;;;;;;23.00;9.85;;;0.90;99.90;;;;;;4985529;28;25101;-73
2022/11/20 04:16:55;;;;;;;22.55;10.07;;;0.80;99.90;;;;;;4989130;28;25058;-72
2022/11/20 04:19:21;;;;;;;18.02;8.60;;;0.80;99.90;;;;;;4980311;28;25080;-75
2022/11/20 04:21:46;;;;;;;18.02;8.77;;;0.80;99.90;;;;;;4986573;28;25047;-73
2022/11/20 04:24:12;;;;;;;22.15;9.63;;;0.90;99.90;;;;;;4976542;28;25089;-73
2022/11/20 04:26:38;;;;;;;24.90;10.85;;;0.80;99.90;;;;;;4984917;28;25097;-73
2022/11/20 04:29:04;;;;;;;23.17;10.02;;;0.90;99.90;;;;;;4999269;28;25065;-74
2022/11/20 04:31:33;;;;;;;19.20;9.80;;;0.90;99.90;;;;;;4996472;28;25106;-73
2022/11/20 04:34:00;;;;;;;22.33;9.88;;;0.90;99.90;;;;;;4990824;28;25104;-73
2022/11/20 04:36:28;;;;;;;22.98;10.23;;;1.00;99.90;;;;;;4984722;28;25072;-74
2022/11/20 04:39:00;;;;;;;17.45;9.80;;;1.00;99.90;;;;;;4997954;28;25117;-72
2022/11/20 04:41:31;;;;;;;26.38;10.05;;;1.00;99.90;;;;;;4996583;28;25052;-72
2022/11/20 04:44:04;;;;;;;22.80;9.65;;;1.00;99.90;;;;;;4987920;28;25061;-73
2022/11/20 04:46:32;;;;;;;20.73;9.63;;;1.00;99.90;;;;;;4988513;28;25097;-73
2022/11/20 04:48:59;;;;;;;22.00;11.02;;;1.00;99.90;;;;;;4994322;28;25077;-73
2022/11/20 04:51:24;;;;;;;21.77;9.80;;;1.10;99.90;;;;;;4984671;28;25074;-73
2022/11/20 04:53:50;;;;;;;17.90;9.45;;;1.10;99.90;;;;;;4994494;28;25064;-73
2022/11/20 04:56:16;;;;;;;24.77;10.45;;;1.20;99.90;;;;;;4999349;28;25085;-72
2022/11/20 04:58:42;;;;;;;24.05;10.07;;;1.10;99.90;;;;;;4992272;28;25091;-72
2022/11/20 05:01:20;;;;;;;20.40;9.65;;;1.10;99.90;;;;;;4996106;28;25120;-72
2022/11/20 05:03:46;;;;;;;22.20;9.48;;;1.10;99.90;;;;;;4993599;28;25087;-73
2022/11/20 05:06:15;;;;;;;24.73;11.10;;;1.10;99.90;;;;;;4983075;28;25120;-72
2022/11/20 05:08:41;;;;;;;23.35;9.73;;;1.30;99.90;;;;;;4998785;28;25053;-72
2022/11/20 05:11:09;;;;;;;21.85;10.60;;;1.20;99.90;;;;;;4986683;28;25109;-74
2022/11/20 05:13:35;;;;;;;20.70;9.68;;;1.20;99.90;;;;;;4985806;28;25052;-72
2022/11/20 05:16:09;;;;;;;19.20;10.23;;;1.20;99.90;;;;;;4986461;28;25129;-73
2022/11/20 05:18:35;;;;;;;21.75;9.95;;;1.20;99.90;;;;;;4988787;28;25122;-72
2022/11/20 05:21:01;;;;;;;27.30;11.05;;;1.30;99.90;;;;;;4993154;28;25060;-73
2022/11/20 05:23:28;;;;;;;25.55;10.52;;;1.40;99.90;;;;;;5002279;28;25108;-73
2022/11/20 05:25:55;;;;;;;20.95;10.27;;;1.30;99.90;;;;;;4989189;28;25071;-72
2022/11/20 05:28:22;;;;;;;22.27;10.30;;;1.20;99.90;;;;;;4995400;28;25069;-72
2022/11/20 05:30:48;;;;;;;23.08;9.93;;;1.20;99.90;;;;;;4992968;28;25140;-72
2022/11/20 05:33:14;;;;;;;23.13;10.32;;;1.20;99.90;;;;;;4977820;28;25064;-73
2022/11/20 05:35:40;;;;;;;21.85;10.50;;;1.40;99.90;;;;;;4991386;28;25085;-72
2022/11/20 05:38:05;;;;;;;21.10;10.02;;;1.50;99.90;;;;;;4988574;28;25079;-72
2022/11/20 05:40:31;;;;;;;20.48;10.32;;;1.60;99.90;;;;;;4980551;28;25136;-71
2022/11/20 05:42:57;;;;;;;21.65;10.13;;;1.50;99.90;;;;;;4989736;28;25089;-72
2022/11/20 05:45:22;;;;;;;18.77;9.68;;;1.50;99.90;;;;;;4989195;28;25078;-73
2022/11/20 05:47:48;;;;;;;21.60;9.50;;;1.30;99.90;;;;;;4993649;28;25105;-73
2022/11/20 05:50:14;;;;;;;21.02;9.32;;;1.20;99.90;;;;;;4980061;28;25065;-73
2022/11/20 05:52:40;;;;;;;23.95;9.50;;;1.20;99.90;;;;;;4985332;28;25115;-72
2022/11/20 05:55:06;;;;;;;20.15;9.68;;;1.20;99.90;;;;;;4979112;28;25103;-73
2022/11/20 05:57:31;;;;;;;19.45;9.45;;;1.20;99.90;;;;;;4980842;28;25149;-71
2022/11/20 05:59:57;;;;;;;20.48;9.57;;;1.30;99.90;;;;;;4983110;28;25071;-73
2022/11/20 06:02:23;;;;;;;20.98;11.02;;;1.50;99.90;;;;;;4985224;28;25057;-72
2022/11/20 06:04:48;;;;;;;22.73;11.00;;;1.60;99.90;;;;;;4986343;28;25101;-73
2022/11/20 06:07:14;;;;;;;23.00;10.02;;;1.50;99.90;;;;;;4986403;28;25142;-72
2022/11/20 06:09:40;;;;;;;24.08;10.98;;;1.50;99.90;;;;;;4983038;28;25077;-72
2022/11/20 06:12:06;;;;;;;20.63;10.52;;;1.50;99.90;;;;;;4988083;28;25082;-72
2022/11/20 06:14:32;;;;;;;22.35;10.45;;;1.50;99.90;;;;;;4986812;28;25087;-72
2022/11/20 06:16:58;;;;;;;18.75;9.77;;;1.40;99.90;;;;;;5000559;28;25094;-72
2022/11/20 06:19:23;;;;;;;25.50;11.05;;;1.50;99.90;;;;;;5005101;28;25132;-73
2022/11/20 06:21:49;;;;;;;26.08;11.25;;;1.50;99.90;;;;;;4989981;28;25056;-72
2022/11/20 06:24:15;;;;;;;24.30;10.75;;;1.60;99.90;;;;;;4983270;28;25121;-72
2022/11/20 06:26:41;;;;;;;26.20;10.48;;;1.60;99.90;;;;;;4985672;28;25063;-70
2022/11/20 06:29:07;;;;;;;23.25;10.27;;;1.70;99.90;;;;;;4983482;28;25060;-72
2022/11/20 06:31:34;;;;;;;22.17;10.23;;;1.70;99.90;;;;;;4986709;28;25058;-72
2022/11/20 06:34:00;;;;;;;22.58;10.32;;;1.70;99.90;;;;;;4987466;28;25123;-72
2022/11/20 06:36:26;;;;;;;22.45;10.35;;;1.80;99.90;;;;;;4986082;28;25076;-72
2022/11/20 06:38:52;;;;;;;22.83;11.15;;;1.80;99.90;;;;;;4989154;28;25080;-70
2022/11/20 06:41:20;;;;;;;23.38;11.20;;;1.70;99.90;;;;;;4987329;28;25081;-72
2022/11/20 06:43:46;;;;;;;23.23;11.95;;;1.60;99.90;;;;;;4986515;28;25150;-72
2022/11/20 06:46:13;;;;;;;28.67;10.68;;;1.60;99.90;;;;;;4985181;28;25073;-71
2022/11/20 06:48:39;;;;;;;24.75;11.10;;;1.60;99.90;;;;;;4987616;28;25085;-72
2022/11/20 06:51:07;;;;;;;24.42;11.23;;;1.70;99.90;;;;;;4988641;28;25078;-73
2022/11/20 06:53:33;;;;;;;24.30;11.35;;;1.70;99.90;;;;;;4983650;28;25066;-73
2022/11/20 06:55:59;;;;;;;21.42;10.82;;;1.70;99.90;;;;;;4987956;28;25120;-71
2022/11/20 06:58:27;;;;;;;24.52;11.90;;;1.70;99.90;;;;;;4989590;28;25157;-71
2022/11/20 07:00:53;;;;;;;24.02;10.52;;;1.70;99.90;;;;;;4986693;28;25072;-72
2022/11/20 07:03:19;;;;;;;21.65;10.85;;;1.70;99.90;;;;;;4996098;28;25056;-72
2022/11/20 07:05:45;;;;;;;29.45;11.55;;;1.90;99.90;;;;;;5013170;28;25124;-73
2022/11/20 07:08:12;;;;;;;20.60;10.30;;;1.90;99.90;;;;;;5002067;28;25138;-72
2022/11/20 07:10:37;;;;;;;22.98;11.15;;;1.80;99.90;;;;;;4996034;28;25089;-72
2022/11/20 07:13:03;;;;;;;26.75;10.65;;;1.80;99.90;;;;;;5005828;28;25050;-71
2022/11/20 07:15:29;;;;;;;20.67;10.07;;;1.90;99.90;;;;;;4999722;28;25062;-70
2022/11/20 07:17:55;;;;;;;24.25;11.73;;;1.90;99.90;;;;;;4995753;28;25076;-71
2022/11/20 07:20:21;;;;;;;22.88;10.75;;;2.00;99.90;;;;;;5014898;28;25047;-71
2022/11/20 07:22:46;;;;;;;22.70;10.90;;;2.10;99.90;;;;;;4987562;28;25154;-71
2022/11/20 07:25:12;;;;;;;24.75;12.15;;;2.20;99.90;;;;;;4990059;28;25089;-71
2022/11/20 07:27:37;;;;;;;25.17;10.75;;;2.40;99.90;;;;;;4985671;28;25062;-72
2022/11/20 07:30:04;;;;;;;32.38;11.75;;;2.40;99.90;;;;;;4995627;28;25083;-71
2022/11/20 07:32:29;;;;;;;23.20;11.40;;;2.40;99.90;;;;;;4993004;28;25136;-71
2022/11/20 07:34:55;;;;;;;22.45;10.63;;;2.30;99.90;;;;;;4992834;28;25115;-71
2022/11/20 07:37:21;;;;;;;23.92;10.95;;;2.30;99.90;;;;;;4992156;28;25077;-71
2022/11/20 07:39:46;;;;;;;19.10;10.07;;;2.30;99.90;;;;;;4984654;28;25137;-71
2022/11/20 07:42:12;;;;;;;25.92;9.93;;;2.40;99.90;;;;;;4997334;28;25131;-73
2022/11/20 07:44:38;;;;;;;23.35;12.00;;;2.50;99.90;;;;;;4986996;28;25113;-71
2022/11/20 07:47:04;;;;;;;24.25;11.02;;;2.60;99.90;;;;;;4991557;28;25131;-71
2022/11/20 07:49:30;;;;;;;23.90;11.45;;;2.60;99.90;;;;;;4990171;28;25069;-71
2022/11/20 07:51:56;;;;;;;25.27;11.63;;;2.70;99.90;;;;;;4990742;28;25176;-73
2022/11/20 07:54:22;;;;;;;25.13;11.65;;;2.70;99.90;;;;;;4975637;28;25076;-71
2022/11/20 07:56:48;;;;;;;27.17;11.80;;;2.70;99.90;;;;;;4992913;28;25130;-72
2022/11/20 07:59:15;;;;;;;26.90;11.77;;;2.50;99.90;;;;;;4982097;28;25104;-73
2022/11/20 08:01:41;;;;;;;26.17;11.80;;;2.50;99.90;;;;;;4982617;28;25161;-71
2022/11/20 08:04:07;;;;;;;25.65;11.77;;;2.70;99.90;;;;;;4988541;28;25150;-73
2022/11/20 08:06:33;;;;;;;25.67;12.18;;;2.70;99.90;;;;;;4987379;28;25080;-72
2022/11/20 08:08:59;;;;;;;24.08;11.32;;;2.80;99.90;;;;;;4985333;28;25091;-71
2022/11/20 08:14:12;;;;;;;27.25;12.25;;;2.80;99.90;;;;;;4986191;28;25066;-72
2022/11/20 08:16:43;;;;;;;25.13;11.65;;;2.70;99.90;;;;;;4990163;28;25102;-72
2022/11/20 08:19:08;;;;;;;22.33;11.35;;;2.80;99.90;;;;;;4984892;28;25099;-72
2022/11/20 08:21:34;;;;;;;24.75;12.13;;;2.80;99.90;;;;;;4988924;28;25096;-71
2022/11/20 08:24:00;;;;;;;23.88;11.85;;;2.80;99.90;;;;;;5002093;28;25068;-71
2022/11/20 08:26:26;;;;;;;23.30;11.18;;;2.90;99.90;;;;;;5005516;28;25153;-71
2022/11/20 08:28:56;;;;;;;29.58;11.88;;;3.00;99.90;;;;;;4987022;28;25061;-72
2022/11/20 08:31:23;;;;;;;28.38;11.77;;;3.00;99.90;;;;;;4980840;28;25127;-71
2022/11/20 08:33:49;;;;;;;23.02;11.57;;;3.00;99.90;;;;;;4979192;28;25076;-71
2022/11/20 08:36:15;;;;;;;22.70;11.95;;;3.10;99.90;;;;;;4980275;28;25123;-72
2022/11/20 08:38:40;;;;;;;22.35;11.05;;;3.30;99.90;;;;;;4991346;28;25136;-72
2022/11/20 08:41:25;;;;;;;25.98;11.70;;;3.40;99.90;;;;;;4984689;28;25172;-72
2022/11/20 08:43:56;;;;;;;24.83;12.18;;;3.50;99.90;;;;;;4982408;28;25076;-72
2022/11/20 08:46:23;;;;;;;28.02;11.40;;;3.60;99.90;;;;;;4990876;28;25141;-73
2022/11/20 08:48:49;;;;;;;24.52;10.88;;;3.60;99.90;;;;;;4983790;28;25101;-74
2022/11/20 08:51:15;;;;;;;29.05;12.27;;;3.50;99.90;;;;;;4981548;28;25125;-72
2022/11/20 08:53:42;;;;;;;24.02;11.50;;;3.50;99.90;;;;;;4982446;28;25094;-72
2022/11/20 08:56:09;;;;;;;26.15;11.68;;;3.50;99.90;;;;;;4983985;28;25075;-72
2022/11/20 08:58:35;;;;;;;26.13;14.10;;;3.60;99.90;;;;;;4984785;28;25056;-71
2022/11/20 09:01:01;;;;;;;23.65;11.70;;;3.60;99.90;;;;;;4986325;28;25128;-72
2022/11/20 09:03:27;;;;;;;25.80;12.77;;;3.70;99.90;;;;;;4993841;28;25059;-72
2022/11/20 09:06:04;;;;;;;25.10;12.82;;;3.70;99.90;;;;;;4995648;28;25109;-71
2022/11/20 09:08:30;;;;;;;22.08;11.50;;;3.80;99.90;;;;;;5010220;28;25079;-71
2022/11/20 09:10:57;;;;;;;25.23;12.20;;;3.80;99.90;;;;;;4998402;28;25059;-73
2022/11/20 09:13:24;;;;;;;24.92;12.18;;;3.90;99.90;;;;;;5004842;28;25063;-73
2022/11/20 09:15:57;;;;;;;22.92;12.23;;;3.90;99.90;;;;;;4992806;28;25549;-72
2022/11/20 09:18:26;;;;;;;29.02;12.70;;;4.00;99.90;;;;;;4982709;28;25074;-73
2022/11/20 09:20:55;;;;;;;27.08;12.93;;;4.10;99.90;;;;;;4985586;28;25071;-73
2022/11/20 09:23:21;;;;;;;28.08;13.10;;;4.10;99.90;;;;;;5002696;28;25082;-72
2022/11/20 09:25:46;;;;;;;22.95;11.75;;;4.10;99.90;;;;;;4991529;28;25144;-73
2022/11/20 09:28:12;;;;;;;28.77;14.40;;;4.20;99.90;;;;;;4993843;28;25089;-72
2022/11/20 09:30:38;;;;;;;28.65;13.40;;;4.20;99.90;;;;;;5007546;28;25056;-73
2022/11/20 09:33:05;;;;;;;30.23;14.27;;;4.20;99.90;;;;;;4988992;28;25148;-72
2022/11/20 09:35:30;;;;;;;28.17;12.73;;;4.20;99.90;;;;;;5001049;28;25144;-72
2022/11/20 09:37:56;;;;;;;32.83;14.38;;;4.20;99.90;;;;;;4986244;28;25150;-72
2022/11/20 09:40:29;;;;;;;28.63;13.05;;;4.20;99.90;;;;;;4985106;28;25056;-72
2022/11/20 09:43:17;;;;;;;28.58;12.60;;;4.20;99.90;;;;;;4984348;28;25135;-71
2022/11/20 09:45:50;;;;;;;33.17;14.93;;;4.30;99.90;;;;;;4990274;28;25077;-73
2022/11/20 09:48:37;;;;;;;32.92;13.30;;;4.40;99.90;;;;;;4990227;28;25113;-73
2022/11/20 09:51:16;;;;;;;31.80;14.45;;;4.50;99.90;;;;;;4989375;28;25093;-73
2022/11/20 09:54:12;;;;;;;33.72;13.90;;;4.50;99.90;;;;;;4987147;28;25094;-73
2022/11/20 09:56:42;;;;;;;33.25;13.68;;;4.50;99.90;;;;;;4984915;28;25138;-73
2022/11/20 09:59:24;;;;;;;32.42;14.18;;;4.50;99.90;;;;;;4988059;28;25078;-73
2022/11/20 10:01:50;;;;;;;28.30;13.52;;;4.60;99.90;;;;;;4988139;28;25076;-72
2022/11/20 10:04:19;;;;;;;31.80;14.85;;;4.70;99.90;;;;;;4984848;28;25073;-72
2022/11/20 10:07:16;;;;;;;33.08;15.85;;;4.80;99.90;;;;;;4989537;28;25051;-74
2022/11/20 10:09:50;;;;;;;36.95;17.40;;;4.80;99.90;;;;;;4987601;28;25097;-74
2022/11/20 10:12:26;;;;;;;39.15;16.73;;;4.90;99.90;;;;;;4985171;28;25056;-71
2022/11/20 10:15:17;;;;;;;35.30;15.68;;;4.90;99.90;;;;;;4990178;28;25069;-73
2022/11/20 10:17:55;;;;;;;35.85;16.17;;;5.00;99.90;;;;;;4986482;28;25133;-72
2022/11/20 10:20:26;;;;;;;38.47;15.38;;;5.10;99.90;;;;;;4990528;28;25080;-72
2022/11/20 10:23:39;;;;;;;34.40;15.70;;;5.10;99.90;;;;;;4988267;28;25149;-72
2022/11/20 10:26:26;;;;;;;36.80;15.68;;;5.10;99.90;;;;;;4963805;28;25122;-73
2022/11/20 10:28:57;;;;;;;35.40;16.15;;;5.20;99.90;;;;;;4987543;28;25066;-73
2022/11/20 10:31:49;;;;;;;35.15;16.48;;;5.30;99.90;;;;;;4992364;28;25055;-72
2022/11/20 10:34:19;;;;;;;32.10;15.48;;;5.20;99.90;;;;;;4983848;28;25090;-71
2022/11/20 10:36:50;;;;;;;33.63;14.93;;;5.30;99.90;;;;;;4987057;28;25139;-73
2022/11/20 10:39:28;;;;;;;36.97;15.73;;;5.30;99.90;;;;;;4992283;28;25123;-72
2022/11/20 10:41:55;;;;;;;32.67;15.50;;;5.40;99.90;;;;;;4983968;28;25049;-72
2022/11/20 10:47:15;;;;;;;32.95;16.17;;;5.50;99.90;;;;;;5002968;28;25069;-74
2022/11/20 10:49:42;;;;;;;38.22;17.25;;;5.50;99.90;;;;;;5001580;28;25063;-73
2022/11/20 10:52:39;;;;;;;40.40;16.85;;;5.40;99.90;;;;;;4997470;28;25091;-74
2022/11/20 10:55:30;;;;;;;40.17;18.13;;;5.50;99.90;;;;;;4986468;28;25137;-74
2022/11/20 10:58:45;;;;;;;42.10;17.60;;;5.70;99.90;;;;;;4986879;28;25111;-74
2022/11/20 11:01:21;;;;;;;38.85;16.83;;;5.80;99.90;;;;;;4928290;28;25051;-73
2022/11/20 11:03:47;;;;;;;36.25;16.80;;;5.80;99.90;;;;;;5000586;28;25152;-73
2022/11/20 11:06:16;;;;;;;36.33;16.90;;;5.70;99.90;;;;;;4975172;28;25054;-73
2022/11/20 11:08:43;;;;;;;37.92;18.00;;;5.70;99.90;;;;;;4994968;28;25083;-74
2022/11/20 11:11:23;;;;;;;40.00;17.70;;;5.80;99.90;;;;;;4984359;28;25058;-73
2022/11/20 11:13:49;;;;;;;38.00;15.73;;;6.00;99.90;;;;;;4996766;28;25060;-72
2022/11/20 11:16:23;;;;;;;42.72;18.50;;;6.10;99.90;;;;;;4992171;28;25111;-74
2022/11/20 11:18:49;;;;;;;41.45;16.73;;;6.10;99.90;;;;;;4987235;28;25141;-73
2022/11/20 11:21:24;;;;;;;41.53;18.38;;;6.10;99.90;;;;;;4990330;28;25092;-73
2022/11/20 11:24:02;;;;;;;46.83;17.65;;;6.20;99.90;;;;;;4986505;28;25088;-72
2022/11/20 11:26:28;;;;;;;43.63;18.05;;;6.20;99.90;;;;;;4984781;28;25066;-74
2022/11/20 11:28:59;;;;;;;44.22;19.52;;;6.20;99.90;;;;;;4985578;28;25106;-75
2022/11/20 11:31:31;;;;;;;38.47;16.70;;;6.30;99.90;;;;;;4985854;28;25050;-74
2022/11/20 11:34:17;;;;;;;46.17;18.13;;;6.40;99.90;;;;;;4982270;28;25132;-72
2022/11/20 11:36:54;;;;;;;42.08;17.95;;;6.40;99.90;;;;;;4984804;28;25171;-72
2022/11/20 11:39:20;;;;;;;43.38;18.33;;;6.40;99.90;;;;;;4983779;28;25077;-72
2022/11/20 11:41:47;;;;;;;44.92;18.27;;;6.40;99.90;;;;;;4983075;28;25062;-75
2022/11/20 11:47:01;;;;;;;44.10;18.17;;;6.60;99.90;;;;;;4987366;28;25101;-72
2022/11/20 11:49:27;;;;;;;39.88;17.65;;;6.60;99.90;;;;;;4997376;28;25062;-73
2022/11/20 11:52:19;;;;;;;42.50;19.08;;;6.60;99.90;;;;;;4985753;28;25064;-74
2022/11/20 11:54:59;;;;;;;38.40;16.90;;;6.70;99.90;;;;;;4981802;28;25056;-73
2022/11/20 11:57:37;;;;;;;45.00;19.05;;;6.70;99.90;;;;;;4983975;28;25137;-74
2022/11/20 12:00:17;;;;;;;40.22;16.60;;;6.90;99.90;;;;;;4981754;28;25080;-72
2022/11/20 12:02:46;;;;;;;44.42;18.88;;;6.90;99.90;;;;;;4981026;28;25104;-73
2022/11/20 12:05:25;;;;;;;42.33;17.48;;;7.00;99.90;;;;;;5005760;28;25094;-74
2022/11/20 12:07:59;;;;;;;42.75;17.75;;;7.00;99.90;;;;;;4998444;28;25071;-74
2022/11/20 12:10:58;;;;;;;48.90;18.90;;;7.20;99.90;;;;;;5000765;28;25059;-75
2022/11/20 12:13:33;;;;;;;45.92;18.30;;;7.30;99.90;;;;;;4986988;28;25097;-74
2022/11/20 12:16:00;;;;;;;46.85;18.55;;;7.30;99.90;;;;;;4988241;28;25074;-75
2022/11/20 12:18:27;;;;;;;41.30;17.95;;;7.30;99.90;;;;;;4998647;28;25077;-75
2022/11/20 12:21:11;;;;;;;41.95;16.70;;;7.30;99.90;;;;;;4984818;28;25079;-74
2022/11/20 12:23:56;;;;;;;45.85;19.00;;;7.30;99.90;;;;;;4995512;28;25077;-75
2022/11/20 12:27:07;;;;;;;45.65;19.00;;;7.30;99.90;;;;;;4986223;28;25068;-75
2022/11/20 12:30:02;;;;;;;41.67;17.75;;;7.40;99.90;;;;;;4959045;28;25105;-74
2022/11/20 12:32:55;;;;;;;46.55;19.67;;;7.50;99.90;;;;;;5011182;28;25077;-74
2022/11/20 12:35:51;;;;;;;43.50;17.90;;;7.60;99.90;;;;;;5003154;28;25094;-73
2022/11/20 12:38:39;;;;;;;43.20;18.90;;;7.50;99.90;;;;;;5008845;28;25129;-74
2022/11/20 12:45:09;;;;;;;43.28;18.35;;;7.60;99.90;;;;;;5003321;28;25066;-75
2022/11/20 12:47:09;;;;;;;53.83;20.35;;;7.80;99.90;;;;;;4988829;28;25077;-74
2022/11/20 12:50:13;;;;;;;56.97;21.20;;;7.70;99.90;;;;;;4989527;28;25116;-74
2022/11/20 12:53:05;;;;;;;54.55;22.23;;;7.70;99.90;;;;;;4987324;28;25056;-74
2022/11/20 12:55:42;;;;;;;56.60;20.95;;;7.80;99.90;;;;;;4993760;28;25144;-73
2022/11/20 12:58:16;;;;;;;53.25;21.67;;;7.80;99.90;;;;;;4995388;28;25084;-76
2022/11/20 13:00:54;;;;;;;70.38;22.60;;;7.80;99.90;;;;;;4991116;28;25083;-74
2022/11/20 13:03:44;;;;;;;61.45;21.80;;;7.90;99.90;;;;;;4985807;28;25110;-74
2022/11/20 13:06:15;;;;;;;53.63;23.45;;;8.10;99.90;;;;;;4982809;28;25156;-74
2022/11/20 13:08:44;;;;;;;61.97;22.35;;;8.20;99.90;;;;;;5000559;28;25151;-74